createdAt,value
2019-06-28T00:02:20.462Z,17.40
2019-06-28T00:04:51.124Z,17.30
2019-06-28T00:07:21.499Z,17.30
2019-06-28T00:09:51.905Z,17.20
2019-06-28T00:12:23.073Z,17.20
2019-06-28T00:14:53.443Z,17.10
2019-06-28T00:17:24.207Z,17.10
2019-06-28T00:19:55.218Z,17.00
2019-06-28T00:22:25.561Z,17.00
2019-06-28T00:24:56.021Z,16.90
2019-06-28T00:27:26.461Z,16.80
2019-06-28T00:29:57.154Z,16.80
2019-06-28T00:32:27.532Z,16.80
2019-06-28T00:34:58.065Z,16.70
2019-06-28T00:37:28.432Z,16.70
2019-06-28T00:39:58.824Z,16.70
2019-06-28T00:42:29.170Z,16.70
2019-06-28T00:44:59.919Z,16.60
2019-06-28T00:47:30.718Z,16.60
2019-06-28T00:50:01.063Z,16.50
2019-06-28T00:52:31.819Z,16.40
2019-06-28T00:55:02.244Z,16.40
2019-06-28T00:57:32.934Z,16.40
2019-06-28T01:00:05.168Z,16.30
2019-06-28T01:02:36.150Z,16.30
2019-06-28T01:05:06.486Z,16.20
2019-06-28T01:07:37.500Z,16.10
2019-06-28T01:10:10.615Z,16.10
2019-06-28T01:12:54.775Z,16.10
2019-06-28T01:15:14.969Z,16.10
2019-06-28T01:17:45.537Z,16.00
2019-06-28T01:20:16.321Z,15.90
2019-06-28T01:22:47.137Z,15.90
2019-06-28T01:25:17.535Z,15.90
2019-06-28T01:27:47.937Z,15.90
2019-06-28T01:30:23.801Z,15.90
2019-06-28T01:32:54.545Z,15.90
2019-06-28T01:35:24.947Z,15.80
2019-06-28T01:37:55.826Z,15.70
2019-06-28T01:40:26.190Z,15.80
2019-06-28T01:42:56.961Z,15.70
2019-06-28T01:45:27.323Z,15.60
2019-06-28T01:47:57.727Z,15.60
2019-06-28T01:50:28.091Z,15.60
2019-06-28T01:52:58.503Z,15.60
2019-06-28T01:55:29.126Z,15.60
2019-06-28T01:57:59.864Z,15.50
2019-06-28T02:00:30.586Z,15.50
2019-06-28T02:03:01.033Z,15.40
2019-06-28T02:05:31.376Z,15.40
2019-06-28T02:08:02.062Z,15.30
2019-06-28T02:10:32.517Z,15.30
2019-06-28T02:13:03.242Z,15.30
2019-06-28T02:15:33.948Z,15.30
2019-06-28T02:18:05.038Z,15.20
2019-06-28T02:20:35.373Z,15.20
2019-06-28T02:23:05.715Z,15.20
2019-06-28T02:25:36.144Z,15.10
2019-06-28T02:28:06.537Z,15.10
2019-06-28T02:30:36.948Z,15.20
2019-06-28T02:33:07.287Z,15.10
2019-06-28T02:35:37.747Z,15.20
2019-06-28T02:38:08.143Z,15.20
2019-06-28T02:40:38.511Z,15.10
2019-06-28T02:43:08.883Z,15.10
2019-06-28T02:45:39.250Z,15.10
2019-06-28T02:48:09.943Z,15.20
2019-06-28T02:50:40.466Z,15.20
2019-06-28T02:53:11.107Z,15.20
2019-06-28T02:55:41.476Z,15.20
2019-06-28T02:58:11.905Z,15.20
2019-06-28T03:00:42.224Z,15.20
2019-06-28T03:03:12.951Z,15.10
2019-06-28T03:05:43.587Z,15.20
2019-06-28T03:08:13.985Z,15.20
2019-06-28T03:10:44.669Z,15.10
2019-06-28T03:13:15.027Z,15.10
2019-06-28T03:15:45.665Z,15.10
2019-06-28T03:18:16.222Z,15.10
2019-06-28T03:20:46.593Z,15.20
2019-06-28T03:23:17.138Z,15.20
2019-06-28T03:25:47.490Z,15.20
2019-06-28T03:28:19.636Z,15.20
2019-06-28T03:30:49.958Z,15.30
2019-06-28T03:33:20.708Z,15.30
2019-06-28T03:35:51.394Z,15.30
2019-06-28T03:38:21.965Z,15.30
2019-06-28T03:40:52.457Z,15.40
2019-06-28T03:43:22.958Z,15.30
2019-06-28T03:45:53.310Z,15.40
2019-06-28T03:48:24.364Z,15.50
2019-06-28T03:50:54.725Z,15.50
2019-06-28T03:53:25.348Z,15.50
2019-06-28T03:55:56.018Z,15.60
2019-06-28T03:58:26.815Z,15.60
2019-06-28T04:00:57.495Z,15.60
2019-06-28T04:03:28.230Z,15.70
2019-06-28T04:05:58.903Z,15.70
2019-06-28T04:08:29.749Z,15.80
2019-06-28T04:11:00.117Z,15.90
2019-06-28T04:13:30.476Z,15.80
2019-06-28T04:16:01.551Z,15.60
2019-06-28T04:18:32.285Z,15.70
2019-06-28T04:21:03.010Z,15.80
2019-06-28T04:23:33.442Z,15.90
2019-06-28T04:26:03.787Z,16.00
2019-06-28T04:28:34.222Z,16.00
2019-06-28T04:31:04.592Z,16.00
2019-06-28T04:33:35.238Z,15.90
2019-06-28T04:36:05.639Z,15.90
2019-06-28T04:38:36.003Z,15.90
2019-06-28T04:41:06.440Z,15.80
2019-06-28T04:43:36.781Z,15.70
2019-06-28T04:46:07.161Z,15.50
2019-06-28T04:48:37.490Z,15.50
2019-06-28T04:51:07.865Z,15.60
2019-06-28T04:53:38.338Z,15.70
2019-06-28T04:56:09.435Z,15.70
2019-06-28T04:58:40.148Z,15.80
2019-06-28T05:01:10.905Z,15.80
2019-06-28T05:03:41.297Z,15.80
2019-06-28T05:06:12.161Z,15.90
2019-06-28T05:08:42.590Z,16.00
2019-06-28T05:11:13.646Z,16.10
2019-06-28T05:13:44.680Z,16.20
2019-06-28T05:16:15.057Z,16.20
2019-06-28T05:18:45.741Z,16.20
2019-06-28T05:21:16.170Z,16.20
2019-06-28T05:23:46.544Z,16.30
2019-06-28T05:26:16.905Z,16.30
2019-06-28T05:28:47.304Z,16.30
2019-06-28T05:31:18.023Z,16.50
2019-06-28T05:33:48.400Z,16.60
2019-06-28T05:36:18.802Z,16.70
2019-06-28T05:38:49.140Z,16.60
2019-06-28T05:41:19.942Z,16.70
2019-06-28T05:43:54.602Z,16.70
2019-06-28T05:46:22.717Z,16.80
2019-06-28T05:48:54.056Z,16.90
2019-06-28T05:51:24.459Z,17.00
2019-06-28T05:53:54.803Z,17.10
2019-06-28T05:56:25.472Z,17.20
2019-06-28T05:58:55.812Z,17.20
2019-06-28T06:01:26.484Z,17.20
2019-06-28T06:03:56.957Z,17.20
2019-06-28T06:06:27.312Z,17.40
2019-06-28T06:08:57.750Z,17.60
2019-06-28T06:11:31.105Z,17.70
2019-06-28T06:14:10.470Z,17.90
2019-06-28T06:16:32.749Z,18.10
2019-06-28T06:19:03.553Z,18.10
2019-06-28T06:21:34.178Z,18.20
2019-06-28T06:24:05.300Z,18.00
2019-06-28T06:26:36.038Z,18.10
2019-06-28T06:29:06.415Z,18.20
2019-06-28T06:31:36.984Z,18.40
2019-06-28T06:34:07.638Z,18.40
2019-06-28T06:36:38.009Z,18.30
2019-06-28T06:39:08.785Z,18.40
2019-06-28T06:41:39.803Z,18.60
2019-06-28T06:46:40.257Z,18.80
2019-06-28T06:49:10.650Z,18.70
2019-06-28T06:51:41.020Z,18.70
2019-06-28T06:54:12.020Z,18.80
2019-06-28T06:56:42.675Z,18.90
2019-06-28T06:59:13.076Z,18.80
2019-06-28T07:01:43.790Z,18.70
2019-06-28T07:04:14.527Z,18.90
2019-06-28T07:06:45.223Z,19.10
2019-06-28T07:09:15.598Z,19.20
2019-06-28T07:15:43.281Z,19.20
2019-06-28T07:18:00.726Z,19.10
2019-06-28T07:20:31.111Z,19.20
2019-06-28T07:23:03.019Z,19.20
2019-06-28T07:25:33.861Z,19.10
2019-06-28T07:28:04.613Z,19.10
2019-06-28T07:30:54.441Z,19.10
2019-06-28T07:33:24.843Z,19.00
2019-06-28T07:35:55.578Z,18.90
2019-06-28T07:38:26.324Z,18.70
2019-06-28T07:40:57.065Z,18.80
2019-06-28T07:43:27.809Z,18.90
2019-06-28T07:45:58.590Z,19.00
2019-06-28T07:48:28.941Z,19.00
2019-06-28T07:50:59.411Z,19.20
2019-06-28T07:53:29.777Z,19.20
2019-06-28T07:56:00.149Z,19.20
2019-06-28T07:58:30.562Z,19.30
2019-06-28T08:01:00.933Z,19.30
2019-06-28T08:03:32.029Z,19.30
2019-06-28T08:06:02.473Z,19.40
2019-06-28T08:08:32.886Z,19.60
2019-06-28T08:11:03.615Z,19.80
2019-06-28T08:13:34.255Z,20.00
2019-06-28T08:16:04.641Z,19.90
2019-06-28T08:18:35.769Z,19.60
2019-06-28T08:21:06.138Z,19.40
2019-06-28T08:23:36.909Z,19.50
2019-06-28T08:26:07.328Z,19.60
2019-06-28T08:28:37.736Z,19.70
2019-06-28T08:31:08.377Z,19.90
2019-06-28T08:33:39.141Z,20.00
2019-06-28T08:36:09.512Z,20.10
2019-06-28T08:38:40.196Z,20.30
2019-06-28T08:41:10.609Z,20.50
2019-06-28T08:43:41.671Z,20.90
2019-06-28T08:46:14.103Z,21.10
2019-06-28T08:48:44.475Z,21.10
2019-06-28T08:51:15.207Z,21.20
2019-06-28T08:53:45.943Z,21.30
2019-06-28T08:56:16.336Z,21.50
2019-06-28T09:01:18.762Z,21.60
2019-06-28T09:03:49.125Z,21.70
2019-06-28T09:06:19.789Z,21.60
2019-06-28T09:08:50.456Z,21.60
2019-06-28T09:11:21.124Z,21.40
2019-06-28T09:13:51.935Z,21.40
2019-06-28T09:16:22.683Z,21.40
2019-06-28T09:18:53.072Z,21.50
2019-06-28T09:21:23.412Z,21.40
2019-06-28T09:23:53.773Z,21.30
2019-06-28T09:26:24.181Z,21.40
2019-06-28T09:28:54.518Z,21.40
2019-06-28T09:31:24.886Z,21.50
2019-06-28T09:33:55.281Z,21.50
2019-06-28T09:36:25.623Z,21.50
2019-06-28T09:38:56.309Z,21.40
2019-06-28T09:41:26.698Z,21.20
2019-06-28T09:43:57.421Z,21.10
2019-06-28T09:46:27.797Z,21.50
2019-06-28T09:48:58.564Z,21.90
2019-06-28T09:51:28.951Z,22.10
2019-06-28T09:53:59.333Z,22.10
2019-06-28T09:56:29.694Z,22.00
2019-06-28T09:59:00.068Z,21.90
2019-06-28T10:01:30.477Z,21.70
2019-06-28T10:04:00.808Z,21.70
2019-06-28T10:06:31.343Z,21.80
2019-06-28T10:09:01.966Z,21.80
2019-06-28T10:11:32.364Z,22.30
2019-06-28T10:14:02.839Z,22.80
2019-06-28T10:16:33.479Z,23.10
2019-06-28T10:19:03.864Z,22.80
2019-06-28T10:21:34.683Z,22.40
2019-06-28T10:24:05.295Z,22.50
2019-06-28T10:26:36.054Z,22.70
2019-06-28T10:29:06.962Z,22.70
2019-06-28T10:31:37.309Z,22.30
2019-06-28T10:34:07.665Z,22.10
2019-06-28T10:36:38.076Z,22.20
2019-06-28T10:39:08.405Z,22.30
2019-06-28T10:41:39.080Z,22.40
2019-06-28T10:44:09.419Z,22.10
2019-06-28T10:46:42.700Z,22.30
2019-06-28T10:49:12.183Z,22.50
2019-06-28T10:51:42.549Z,22.50
2019-06-28T10:54:13.293Z,22.40
2019-06-28T10:56:43.701Z,22.10
2019-06-28T10:59:14.050Z,22.10
2019-06-28T11:01:44.754Z,22.20
2019-06-28T11:04:15.372Z,22.10
2019-06-28T11:06:45.734Z,22.20
2019-06-28T11:09:16.154Z,22.60
2019-06-28T11:11:46.545Z,23.10
2019-06-28T11:14:16.916Z,23.50
2019-06-28T11:16:58.691Z,23.30
2019-06-28T11:19:19.391Z,23.20
2019-06-28T11:21:49.742Z,23.60
2019-06-28T11:24:20.142Z,23.80
2019-06-28T11:26:50.499Z,23.90
2019-06-28T11:29:21.596Z,23.70
2019-06-28T11:31:51.931Z,23.40
2019-06-28T11:34:22.633Z,23.10
2019-06-28T11:36:53.029Z,23.10
2019-06-28T11:39:23.518Z,23.20
2019-06-28T11:41:53.880Z,22.70
2019-06-28T11:44:24.271Z,22.20
2019-06-28T11:46:54.910Z,22.40
2019-06-28T11:49:25.346Z,23.00
2019-06-28T11:51:55.714Z,22.90
2019-06-28T11:54:26.052Z,22.70
2019-06-28T11:56:56.483Z,23.00
2019-06-28T11:59:26.824Z,22.90
2019-06-28T12:01:57.194Z,22.70
2019-06-28T12:04:47.021Z,22.60
2019-06-28T12:07:17.401Z,22.80
2019-06-28T12:09:49.137Z,22.70
2019-06-28T12:12:19.805Z,22.80
2019-06-28T12:14:50.511Z,23.20
2019-06-28T12:17:31.496Z,23.60
2019-06-28T12:19:53.268Z,23.90
2019-06-28T12:22:23.621Z,24.00
2019-06-28T12:24:54.363Z,24.10
2019-06-28T12:27:24.744Z,24.00
2019-06-28T12:29:55.064Z,23.90
2019-06-28T12:32:25.485Z,23.80
2019-06-28T12:34:55.850Z,23.70
2019-06-28T12:37:26.617Z,23.40
2019-06-28T12:39:57.092Z,23.40
2019-06-28T12:42:27.449Z,23.00
2019-06-28T12:44:57.874Z,23.10
2019-06-28T12:47:28.197Z,23.20
2019-06-28T12:49:58.620Z,23.10
2019-06-28T12:52:29.255Z,22.90
2019-06-28T12:54:59.642Z,23.30
2019-06-28T12:57:30.356Z,23.90
2019-06-28T13:00:00.718Z,24.00
2019-06-28T13:02:31.413Z,24.10
2019-06-28T13:05:02.255Z,24.00
2019-06-28T13:07:32.795Z,23.30
2019-06-28T13:10:04.035Z,23.60
2019-06-28T13:12:34.740Z,23.80
2019-06-28T13:15:08.698Z,23.60
2019-06-28T13:17:39.694Z,23.50
2019-06-28T13:20:10.210Z,23.70
2019-06-28T13:22:40.873Z,23.90
2019-06-28T13:25:11.591Z,24.20
2019-06-28T13:27:42.309Z,24.40
2019-06-28T13:30:12.670Z,24.40
2019-06-28T13:32:43.076Z,24.30
2019-06-28T13:35:13.504Z,23.90
2019-06-28T13:37:43.827Z,23.80
2019-06-28T13:40:14.593Z,23.80
2019-06-28T13:42:45.515Z,24.00
2019-06-28T13:45:15.948Z,24.10
2019-06-28T13:47:46.565Z,24.20
2019-06-28T13:50:17.493Z,24.10
2019-06-28T13:52:47.904Z,24.30
2019-06-28T13:55:18.243Z,24.30
2019-06-28T13:57:48.606Z,24.60
2019-06-28T14:00:19.991Z,24.00
2019-06-28T14:02:50.354Z,23.80
2019-06-28T14:05:21.449Z,23.90
2019-06-28T14:07:52.081Z,24.20
2019-06-28T14:10:23.419Z,24.60
2019-06-28T14:12:54.506Z,24.90
2019-06-28T14:15:25.255Z,25.10
2019-06-28T14:17:56.354Z,25.20
2019-06-28T14:20:26.703Z,25.50
2019-06-28T14:22:57.107Z,25.80
2019-06-28T14:25:27.835Z,26.00
2019-06-28T14:27:58.245Z,25.60
2019-06-28T14:30:28.638Z,25.60
2019-06-28T14:32:59.005Z,25.20
2019-06-28T14:35:29.384Z,25.20
2019-06-28T14:38:00.104Z,25.10
2019-06-28T14:40:31.248Z,25.50
2019-06-28T14:43:01.988Z,25.80
2019-06-28T14:45:32.420Z,25.80
2019-06-28T14:48:03.160Z,25.40
2019-06-28T14:50:33.526Z,25.10
2019-06-28T14:53:03.868Z,25.40
2019-06-28T14:55:34.245Z,25.80
2019-06-28T14:58:04.962Z,25.90
2019-06-28T15:00:35.725Z,26.10
2019-06-28T15:03:07.979Z,26.40
2019-06-28T15:05:38.556Z,26.30
2019-06-28T15:08:08.938Z,26.10
2019-06-28T15:10:39.618Z,26.30
2019-06-28T15:13:10.003Z,26.40
2019-06-28T15:15:40.937Z,26.40
2019-06-28T15:18:11.338Z,25.20
2019-06-28T15:20:41.701Z,25.40
2019-06-28T15:23:12.435Z,25.60
2019-06-28T15:25:42.854Z,25.80
2019-06-28T15:28:13.190Z,25.80
2019-06-28T15:30:43.882Z,25.90
2019-06-28T15:33:14.305Z,26.00
2019-06-28T15:35:44.686Z,26.10
2019-06-28T15:38:15.073Z,26.40
2019-06-28T15:40:45.412Z,26.50
2019-06-28T15:43:16.197Z,26.40
2019-06-28T15:45:46.587Z,26.30
2019-06-28T15:48:17.300Z,26.50
2019-06-28T15:50:47.687Z,26.20
2019-06-28T15:53:18.061Z,26.40
2019-06-28T15:55:48.853Z,26.30
2019-06-28T15:58:19.199Z,26.00
2019-06-28T16:00:50.243Z,25.90
2019-06-28T16:03:20.605Z,26.00
2019-06-28T16:05:51.001Z,26.10
2019-06-28T16:08:21.738Z,26.20
2019-06-28T16:13:27.242Z,26.40
2019-06-28T16:15:57.609Z,26.40
2019-06-28T16:18:28.027Z,26.40
2019-06-28T16:20:58.430Z,26.40
2019-06-28T16:23:29.040Z,26.30
2019-06-28T16:25:59.412Z,26.30
2019-06-28T16:28:30.210Z,26.00
2019-06-28T16:31:00.921Z,25.70
2019-06-28T16:33:31.597Z,25.60
2019-06-28T16:36:02.028Z,25.60
2019-06-28T16:38:32.756Z,25.50
2019-06-28T16:41:03.847Z,25.60
2019-06-28T16:43:34.259Z,25.60
2019-06-28T16:46:04.598Z,25.60
2019-06-28T16:48:34.985Z,25.60
2019-06-28T16:51:05.332Z,25.60
2019-06-28T16:53:35.978Z,25.60
2019-06-28T16:56:06.708Z,25.50
2019-06-28T16:58:37.055Z,25.50
2019-06-28T17:01:07.918Z,25.40
2019-06-28T17:03:38.429Z,25.30
2019-06-28T17:06:08.810Z,25.20
2019-06-28T17:08:39.139Z,25.10
2019-06-28T17:11:09.581Z,24.90
2019-06-28T17:13:39.909Z,24.80
2019-06-28T17:16:10.605Z,24.70
2019-06-28T17:18:40.947Z,24.70
2019-06-28T17:21:11.347Z,24.80
2019-06-28T17:23:41.680Z,24.80
2019-06-28T17:26:12.346Z,24.80
2019-06-28T17:28:43.130Z,24.90
2019-06-28T17:31:13.478Z,24.90
2019-06-28T17:33:43.840Z,24.90
2019-06-28T17:36:14.216Z,24.90
2019-06-28T17:38:44.580Z,24.90
2019-06-28T17:41:15.652Z,24.70
2019-06-28T17:43:46.320Z,24.70
2019-06-28T17:46:16.958Z,24.80
2019-06-28T17:48:47.317Z,25.00
2019-06-28T17:51:17.674Z,25.30
2019-06-28T17:53:48.015Z,25.60
2019-06-28T17:56:18.410Z,25.90
2019-06-28T17:58:49.114Z,25.80
2019-06-28T18:01:19.719Z,25.90
2019-06-28T18:03:50.090Z,25.70
2019-06-28T18:06:20.448Z,25.50
2019-06-28T18:08:50.833Z,25.40
2019-06-28T18:11:21.316Z,25.40
2019-06-28T18:13:51.745Z,25.60
2019-06-28T18:16:22.108Z,25.90
2019-06-28T18:18:53.044Z,26.10
2019-06-28T18:21:23.404Z,26.30
2019-06-28T18:23:53.761Z,26.00
2019-06-28T18:26:24.516Z,26.00
2019-06-28T18:28:54.965Z,26.10
2019-06-28T18:31:25.362Z,26.00
2019-06-28T18:33:55.702Z,26.00
2019-06-28T18:36:26.461Z,25.80
2019-06-28T18:38:57.152Z,25.80
2019-06-28T18:41:27.603Z,25.60
2019-06-28T18:43:57.988Z,25.50
2019-06-28T18:46:28.724Z,25.20
2019-06-28T18:49:00.034Z,24.80
2019-06-28T18:51:30.396Z,24.40
2019-06-28T18:54:00.768Z,24.10
2019-06-28T18:56:31.510Z,23.90
2019-06-28T18:59:02.603Z,23.70
2019-06-28T19:01:33.315Z,23.60
2019-06-28T19:04:04.935Z,23.40
2019-06-28T19:06:35.789Z,23.40
2019-06-28T19:09:06.491Z,23.20
2019-06-28T19:11:36.902Z,23.20
2019-06-28T19:14:07.256Z,23.10
2019-06-28T19:16:37.603Z,23.00
2019-06-28T19:19:08.019Z,22.90
2019-06-28T19:21:38.739Z,22.80
2019-06-28T19:24:09.146Z,22.80
2019-06-28T19:26:39.488Z,22.70
2019-06-28T19:29:09.874Z,22.70
2019-06-28T19:31:40.444Z,22.60
2019-06-28T19:34:10.887Z,22.50
2019-06-28T19:36:41.351Z,22.40
2019-06-28T19:39:12.134Z,22.30
2019-06-28T19:41:42.547Z,22.30
2019-06-28T19:44:13.186Z,22.20
2019-06-28T19:46:43.567Z,22.10
2019-06-28T19:49:14.319Z,22.10
2019-06-28T19:51:45.095Z,22.00
2019-06-28T19:54:15.581Z,21.90
2019-06-28T19:56:46.289Z,21.80
2019-06-28T19:59:16.928Z,21.70
2019-06-28T20:01:52.845Z,21.70
2019-06-28T20:04:19.626Z,21.70
2019-06-28T20:06:50.327Z,21.60
2019-06-28T20:09:20.665Z,21.40
2019-06-28T20:11:51.650Z,21.50
2019-06-28T20:14:22.355Z,21.40
2019-06-28T20:16:53.089Z,21.40
2019-06-28T20:19:24.376Z,21.30
2019-06-28T20:21:58.566Z,21.30
2019-06-28T20:24:27.445Z,21.10
2019-06-28T20:26:57.877Z,21.00
2019-06-28T20:29:28.534Z,21.00
2019-06-28T20:31:58.965Z,20.90
2019-06-28T20:34:29.736Z,20.80
2019-06-28T20:37:00.127Z,20.80
2019-06-28T20:39:30.530Z,20.80
2019-06-28T20:42:01.293Z,20.70
2019-06-28T20:44:32.375Z,20.70
2019-06-28T20:47:02.768Z,20.70
2019-06-28T20:49:33.214Z,20.70
2019-06-28T20:52:14.206Z,20.60
2019-06-28T20:54:37.512Z,20.50
2019-06-28T20:57:07.752Z,20.50
2019-06-28T20:59:38.112Z,20.50
2019-06-28T21:02:08.484Z,20.40
2019-06-28T21:04:38.898Z,20.40
2019-06-28T21:07:09.264Z,20.40
2019-06-28T21:09:39.711Z,20.30
2019-06-28T21:12:10.066Z,20.30
2019-06-28T21:14:40.906Z,20.40
2019-06-28T21:17:11.399Z,20.40
2019-06-28T21:19:42.147Z,20.30
2019-06-28T21:22:12.518Z,20.30
2019-06-28T21:24:43.248Z,20.30
2019-06-28T21:27:13.668Z,20.30
2019-06-28T21:29:44.089Z,20.20
2019-06-28T21:32:14.478Z,20.20
2019-06-28T21:34:45.437Z,20.20
2019-06-28T21:37:16.171Z,20.10
2019-06-28T21:39:46.538Z,20.10
2019-06-28T21:42:17.245Z,20.00
2019-06-28T21:44:47.637Z,20.00
2019-06-28T21:47:18.546Z,20.00
2019-06-28T21:49:48.916Z,20.00
2019-06-28T21:52:19.364Z,19.90
2019-06-28T21:54:49.753Z,19.90
2019-06-28T21:57:20.145Z,19.90
2019-06-28T21:59:50.960Z,19.80
2019-06-28T22:02:21.592Z,19.80
2019-06-28T22:04:51.969Z,19.70
2019-06-28T22:07:22.378Z,19.70
2019-06-28T22:09:53.027Z,19.60
2019-06-28T22:12:23.712Z,19.60
2019-06-28T22:14:54.199Z,19.50
2019-06-28T22:17:24.565Z,19.50
2019-06-28T22:19:56.888Z,19.50
2019-06-28T22:22:27.446Z,19.50
2019-06-28T22:24:58.138Z,19.60
2019-06-28T22:27:28.523Z,19.50
2019-06-28T22:29:59.179Z,19.50
2019-06-28T22:32:29.599Z,19.40
2019-06-28T22:35:00.063Z,19.30
2019-06-28T22:37:30.441Z,19.40
2019-06-28T22:40:00.853Z,19.30
2019-06-28T22:42:31.487Z,19.20
2019-06-28T22:45:01.880Z,19.10
2019-06-28T22:47:32.226Z,19.10
2019-06-28T22:50:02.576Z,19.10
2019-06-28T22:52:33.290Z,19.10
2019-06-28T22:55:09.021Z,19.00
2019-06-28T22:57:39.836Z,18.70
2019-06-28T23:00:10.595Z,18.80
2019-06-28T23:02:41.844Z,18.70
2019-06-28T23:05:12.229Z,18.60
2019-06-28T23:07:42.605Z,18.50
2019-06-28T23:10:13.168Z,18.50
2019-06-28T23:12:43.913Z,18.40
2019-06-28T23:15:14.554Z,18.40
2019-06-28T23:17:44.939Z,18.40
2019-06-28T23:20:15.336Z,18.30
2019-06-28T23:22:46.068Z,18.30
2019-06-28T23:25:16.409Z,18.30
2019-06-28T23:27:47.235Z,18.20
2019-06-28T23:30:17.968Z,18.10
2019-06-28T23:32:48.630Z,18.10
2019-06-28T23:35:19.062Z,18.00
2019-06-28T23:37:49.768Z,18.00
2019-06-28T23:40:20.409Z,18.00
2019-06-28T23:42:50.835Z,18.00
2019-06-28T23:45:21.174Z,18.00
2019-06-28T23:48:04.205Z,18.00
2019-06-28T23:50:23.603Z,17.90
2019-06-28T23:52:53.970Z,17.90
2019-06-28T23:55:24.365Z,17.90
2019-06-28T23:57:55.046Z,17.80
